Time;durP1;ratioP1;P1;durP2;ratioP2;P2;SDS_P1;SDS_P2;PMS_P1;PMS_P2;Temp;Humidity;BMP_temperature;BMP_pressure;BME280_temperature;BME280_humidity;BME280_pressure;Samples;Min_cycle;Max_cycle;Signal;HPM_P1;HPM_P2
2023/03/22 00:00:56;;;;;;;5.68;3.67;;;;;;;10.77;74.40;100753.19;3607473;39;20119;-66
2023/03/22 00:03:24;;;;;;;8.63;3.42;;;;;;;10.73;74.60;100753.50;3606717;39;20047;-67
2023/03/22 00:05:57;;;;;;;5.72;2.75;;;;;;;10.41;74.74;100697.25;3609243;39;20054;-67
2023/03/22 00:08:22;;;;;;;7.97;3.30;;;;;;;10.60;74.57;100740.81;3610231;39;20059;-67
2023/03/22 00:10:48;;;;;;;7.57;3.10;;;;;;;10.52;75.62;100742.25;3607429;39;20275;-67
2023/03/22 00:13:14;;;;;;;4.57;2.95;;;;;;;10.44;75.86;100740.06;3608871;39;20069;-67
2023/03/22 00:15:44;;;;;;;9.20;3.40;;;;;;;10.24;75.53;100700.94;3611643;39;20448;-67
2023/03/22 00:18:12;;;;;;;8.13;2.83;;;;;;;10.44;75.37;100732.84;3610694;39;20084;-66
2023/03/22 00:20:39;;;;;;;7.80;3.40;;;;;;;10.45;76.55;100734.56;3610901;39;20054;-68
2023/03/22 00:23:05;;;;;;;6.28;3.75;;;;;;;10.45;76.01;100731.88;3608444;39;20136;-67
2023/03/22 00:25:30;;;;;;;7.18;3.15;;;;;;;10.44;75.73;100724.78;3601954;39;20118;-68
2023/03/22 00:27:56;;;;;;;7.72;3.13;;;;;;;10.42;75.45;100715.97;3608799;39;20054;-67
2023/03/22 00:30:22;;;;;;;7.78;3.03;;;;;;;10.40;76.19;100712.53;3610221;39;20054;-67
2023/03/22 00:32:47;;;;;;;11.85;3.45;;;;;;;10.36;75.81;100716.34;3609261;39;20062;-67
2023/03/22 00:35:13;;;;;;;8.38;3.30;;;;;;;10.33;76.36;100705.78;3608868;39;20078;-68
2023/03/22 00:37:38;;;;;;;6.55;3.35;;;;;;;10.28;75.69;100699.84;3609103;39;20051;-68
2023/03/22 00:40:09;;;;;;;5.55;3.70;;;;;;;10.23;76.94;100705.47;3609540;39;20554;-68
2023/03/22 00:42:37;;;;;;;8.00;3.22;;;;;;;10.19;76.74;100697.72;3609849;39;20055;-68
2023/03/22 00:45:07;;;;;;;7.45;3.50;;;;;;;10.18;77.40;100694.16;3610020;39;20731;-68
2023/03/22 00:47:34;;;;;;;5.60;3.30;;;;;;;10.20;77.48;100699.41;3604859;39;21285;-67
2023/03/22 00:49:59;;;;;;;5.90;3.85;;;;;;;10.21;77.53;100685.91;3606915;39;20054;-68
2023/03/22 00:52:25;;;;;;;8.35;4.20;;;;;;;9.91;78.38;100632.28;3608434;39;20208;-67
2023/03/22 00:54:51;;;;;;;8.35;3.88;;;;;;;10.24;78.22;100684.84;3610987;39;20051;-68
2023/03/22 00:57:17;;;;;;;8.80;4.53;;;;;;;10.24;78.24;100676.78;3608980;39;20063;-68
2023/03/22 00:59:43;;;;;;;10.50;4.60;;;;;;;10.33;78.51;100680.75;3607812;39;20066;-68
2023/03/22 01:02:13;;;;;;;12.48;4.82;;;;;;;10.37;79.03;100666.16;3606925;39;20061;-68
2023/03/22 01:04:46;;;;;;;10.85;4.70;;;;;;;10.41;78.29;100671.25;3607577;39;20042;-67
2023/03/22 01:07:20;;;;;;;9.95;5.13;;;;;;;10.43;78.60;100663.06;3609349;39;20056;-67
2023/03/22 01:09:47;;;;;;;8.30;5.20;;;;;;;10.42;78.48;100661.34;3608069;39;20066;-68
2023/03/22 01:12:14;;;;;;;9.85;5.00;;;;;;;10.47;78.38;100658.38;3604503;39;20574;-68
2023/03/22 01:14:40;;;;;;;11.07;6.05;;;;;;;10.50;79.36;100658.16;3607846;39;20048;-68
2023/03/22 01:17:06;;;;;;;10.73;6.05;;;;;;;10.55;79.44;100656.06;3607253;39;20124;-68
2023/03/22 01:19:34;;;;;;;12.25;5.85;;;;;;;10.58;78.84;100651.34;3609345;39;20083;-68
2023/03/22 01:22:00;;;;;;;13.27;6.25;;;;;;;10.62;79.18;100647.47;3608050;39;20736;-68
2023/03/22 01:24:25;;;;;;;10.73;6.05;;;;;;;10.65;79.39;100641.06;3600931;39;20137;-68
2023/03/22 01:26:51;;;;;;;8.93;6.10;;;;;;;10.66;78.81;100635.59;3605386;39;20047;-68
2023/03/22 01:29:17;;;;;;;12.38;6.40;;;;;;;10.67;79.54;100623.00;3610662;39;20155;-68
2023/03/22 01:31:43;;;;;;;9.65;7.20;;;;;;;10.55;79.54;100592.41;3605685;39;20106;-67
2023/03/22 01:34:09;;;;;;;12.68;6.75;;;;;;;10.63;79.73;100589.22;3608494;39;20092;-68
2023/03/22 01:36:36;;;;;;;15.65;7.13;;;;;;;10.75;80.01;100599.19;3606492;39;20074;-68
2023/03/22 01:39:02;;;;;;;14.35;8.00;;;;;;;10.81;80.26;100593.38;3606944;39;20059;-67
2023/03/22 01:41:29;;;;;;;12.50;7.43;;;;;;;10.80;80.20;100583.59;3609741;39;20054;-67
2023/03/22 01:44:13;;;;;;;11.88;7.50;;;;;;;10.86;80.51;100591.25;3604952;39;20058;-68
2023/03/22 01:46:42;;;;;;;10.10;7.55;;;;;;;10.91;80.25;100583.75;3606682;39;20069;-68
2023/03/22 01:49:32;;;;;;;11.38;7.57;;;;;;;10.96;79.83;100580.72;3608786;39;20114;-68
2023/03/22 01:52:09;;;;;;;11.93;7.80;;;;;;;10.99;79.75;100574.28;3595966;39;20079;-68
2023/03/22 01:54:44;;;;;;;11.02;7.78;;;;;;;11.03;80.49;100570.41;3609074;39;20061;-68
2023/03/22 01:57:11;;;;;;;14.05;8.38;;;;;;;11.07;80.37;100566.56;3608862;39;20108;-68
2023/03/22 01:59:40;;;;;;;13.93;8.45;;;;;;;10.40;79.85;100448.31;3609073;39;20051;-68
2023/03/22 02:02:06;;;;;;;13.18;7.93;;;;;;;11.07;80.46;100561.19;3609435;39;20047;-67
2023/03/22 02:04:37;;;;;;;12.27;7.88;;;;;;;11.06;80.32;100557.63;3607660;39;20062;-67
2023/03/22 02:07:24;;;;;;;11.27;8.38;;;;;;;11.12;80.04;100553.66;3607231;39;20155;-68
2023/03/22 02:09:51;;;;;;;10.40;8.10;;;;;;;11.12;80.27;100549.13;3607607;39;20047;-68
2023/03/22 02:13:18;;;;;;;12.23;8.45;;;;;;;11.13;80.07;100552.69;3607478;39;20086;-67
2023/03/22 02:15:50;;;;;;;12.00;8.55;;;;;;;11.15;79.70;100551.63;3595303;39;20051;-68
2023/03/22 02:18:57;;;;;;;11.05;9.07;;;;;;;11.15;80.87;100543.53;3606615;39;20050;-68
2023/03/22 02:21:53;;;;;;;12.25;8.52;;;;;;;11.19;79.92;100544.19;3593512;39;20475;-68
2023/03/22 02:25:09;;;;;;;12.60;8.98;;;;;;;11.19;80.13;100544.19;3609840;39;20087;-68
2023/03/22 02:27:35;;;;;;;12.77;9.27;;;;;;;11.22;80.09;100538.59;3611097;39;20090;-68
2023/03/22 02:30:19;;;;;;;11.90;8.13;;;;;;;11.24;80.21;100539.38;3605073;39;20066;-68
2023/03/22 02:33:27;;;;;;;12.88;8.32;;;;;;;11.23;80.23;100524.19;3608403;39;20420;-68
2023/03/22 02:36:15;;;;;;;11.85;8.30;;;;;;;11.24;80.41;100541.19;3609838;39;20063;-68
2023/03/22 02:39:34;;;;;;;13.35;8.13;;;;;;;11.13;79.92;100506.94;3608717;39;20051;-68
2023/03/22 02:42:13;;;;;;;9.15;8.00;;;;;;;11.25;79.93;100527.63;3607023;39;20051;-68
2023/03/22 02:45:16;;;;;;;10.75;7.80;;;;;;;11.28;79.31;100523.88;3611055;39;20059;-68
2023/03/22 02:48:17;;;;;;;10.70;7.35;;;;;;;11.25;79.60;100522.25;3607186;39;20054;-67
2023/03/22 02:50:58;;;;;;;9.90;6.95;;;;;;;11.30;79.25;100525.47;3609909;39;20040;-68
2023/03/22 02:53:50;;;;;;;10.07;6.50;;;;;;;11.32;78.95;100523.56;3611109;39;20074;-68
2023/03/22 02:57:04;;;;;;;11.52;7.07;;;;;;;11.32;79.33;100525.38;3610597;39;20127;-67
2023/03/22 02:59:37;;;;;;;7.63;6.05;;;;;;;11.35;79.14;100512.59;3550194;40;20057;-68
2023/03/22 03:02:06;;;;;;;10.25;6.93;;;;;;;11.34;78.75;100505.44;3548502;40;20135;-68
2023/03/22 03:04:40;;;;;;;9.48;6.43;;;;;;;11.36;78.57;100498.16;3579701;39;20352;-68
2023/03/22 03:07:13;;;;;;;8.30;5.72;;;;;;;11.38;78.34;100507.00;3607726;39;20087;-68
2023/03/22 03:09:42;;;;;;;8.98;6.45;;;;;;;11.38;77.77;100507.00;3608416;39;20054;-68
2023/03/22 03:12:17;;;;;;;7.10;6.10;;;;;;;11.38;78.30;100501.59;3607818;39;20061;-67
2023/03/22 03:14:44;;;;;;;9.77;6.25;;;;;;;11.36;77.68;100503.53;3606001;39;20496;-68
2023/03/22 03:17:55;;;;;;;9.93;5.90;;;;;;;11.37;77.86;100499.00;3607670;39;20120;-68
2023/03/22 03:20:45;;;;;;;7.32;5.43;;;;;;;11.35;77.52;100496.44;3607364;39;20148;-68
2023/03/22 03:23:32;;;;;;;9.70;5.43;;;;;;;11.34;78.05;100494.69;3611002;39;20146;-68
2023/03/22 03:26:34;;;;;;;7.70;4.95;;;;;;;11.34;77.80;100492.00;3610602;39;20051;-68
2023/03/22 03:29:19;;;;;;;9.05;5.13;;;;;;;11.32;77.07;100485.88;3608645;39;20055;-69
2023/03/22 03:32:01;;;;;;;6.43;5.13;;;;;;;11.35;77.22;100493.75;3607293;39;20047;-68
2023/03/22 03:34:33;;;;;;;8.52;4.63;;;;;;;11.35;77.40;100495.53;3605821;39;20051;-68
2023/03/22 03:37:07;;;;;;;5.28;4.25;;;;;;;11.32;77.20;100485.88;3610367;39;20064;-68
2023/03/22 03:39:45;;;;;;;8.18;4.63;;;;;;;11.36;76.44;100482.00;3611421;39;20102;-68
2023/03/22 03:42:16;;;;;;;6.10;4.40;;;;;;;11.39;76.67;100481.78;3610601;39;20099;-68
2023/03/22 03:44:44;;;;;;;7.05;4.32;;;;;;;11.39;77.03;100500.63;3609734;39;20086;-66
2023/03/22 03:47:12;;;;;;;7.97;4.57;;;;;;;11.41;76.38;100483.50;3607976;39;20064;-66
2023/03/22 03:49:38;;;;;;;7.20;4.10;;;;;;;11.41;76.54;100499.66;3608720;39;20108;-66
2023/03/22 03:52:04;;;;;;;10.25;4.65;;;;;;;11.36;76.28;100492.75;3607241;39;20059;-67
2023/03/22 03:54:30;;;;;;;5.90;3.97;;;;;;;11.39;75.94;100500.63;3611388;39;20051;-67
2023/03/22 03:56:56;;;;;;;6.88;4.53;;;;;;;11.37;76.09;100493.63;3608539;39;20116;-66
2023/03/22 03:59:22;;;;;;;4.90;3.55;;;;;;;11.33;75.79;100501.06;3608231;39;20059;-66
2023/03/22 04:01:52;;;;;;;6.53;3.72;;;;;;;11.32;76.24;100502.03;3608941;39;20051;-66
2023/03/22 04:04:36;;;;;;;7.20;3.53;;;;;;;11.25;76.00;100500.72;3607692;39;20066;-67
2023/03/22 04:07:05;;;;;;;6.00;3.50;;;;;;;11.27;76.14;100496.09;3609129;39;20143;-66
2023/03/22 04:09:36;;;;;;;6.97;4.10;;;;;;;11.20;76.14;100486.75;3608985;39;20381;-67
2023/03/22 04:12:02;;;;;;;7.80;3.63;;;;;;;11.19;76.16;100493.06;3609100;39;20398;-66
2023/03/22 04:14:28;;;;;;;6.97;4.20;;;;;;;11.21;76.46;100493.84;3611839;39;20115;-67
2023/03/22 04:16:54;;;;;;;5.78;3.80;;;;;;;11.20;75.74;100493.97;3609261;39;20127;-66
2023/03/22 04:19:21;;;;;;;8.75;3.92;;;;;;;11.17;75.82;100491.47;3608023;39;20359;-66
2023/03/22 04:21:47;;;;;;;8.25;3.97;;;;;;;11.09;75.92;100470.47;3598842;39;20087;-67
2023/03/22 04:24:14;;;;;;;6.43;3.47;;;;;;;11.09;76.24;100479.41;3610853;39;20375;-65
2023/03/22 04:26:40;;;;;;;8.98;3.70;;;;;;;11.10;76.30;100482.94;3607197;39;20070;-67
2023/03/22 04:29:06;;;;;;;7.25;3.72;;;;;;;11.08;76.60;100482.22;3608109;39;20170;-65
2023/03/22 04:31:34;;;;;;;9.77;3.95;;;;;;;11.05;76.17;100471.66;3609965;39;20397;-66
2023/03/22 04:34:04;;;;;;;6.68;3.40;;;;;;;11.04;76.42;100473.50;3610017;39;20068;-66
2023/03/22 04:36:35;;;;;;;8.27;4.07;;;;;;;11.03;76.52;100471.75;3609548;39;20059;-66
2023/03/22 04:39:04;;;;;;;8.82;4.13;;;;;;;11.02;76.81;100466.50;3608122;39;20113;-66
2023/03/22 04:41:31;;;;;;;8.80;3.65;;;;;;;11.04;76.77;100464.56;3607537;39;20060;-67
2023/03/22 04:44:02;;;;;;;6.95;3.55;;;;;;;11.04;76.21;100473.50;3607592;39;20075;-66
2023/03/22 04:46:30;;;;;;;7.35;3.83;;;;;;;11.02;76.18;100477.25;3608928;39;20050;-66
2023/03/22 04:48:56;;;;;;;7.22;3.88;;;;;;;11.02;76.22;100470.03;3607478;39;20091;-67
2023/03/22 04:51:22;;;;;;;7.95;3.47;;;;;;;10.99;76.39;100472.09;3603707;39;20051;-66
2023/03/22 04:53:48;;;;;;;7.03;3.95;;;;;;;11.00;76.07;100465.72;3606773;39;20085;-66
2023/03/22 04:56:14;;;;;;;5.63;3.45;;;;;;;10.88;76.48;100449.50;3610562;39;20075;-66
2023/03/22 04:58:42;;;;;;;10.45;3.65;;;;;;;10.97;76.72;100466.81;3609420;39;20475;-66
2023/03/22 05:01:11;;;;;;;8.23;3.83;;;;;;;10.99;76.79;100469.41;3607932;39;20309;-65
2023/03/22 05:03:37;;;;;;;8.82;3.67;;;;;;;11.00;76.09;100465.72;3606598;39;20051;-65
2023/03/22 05:06:06;;;;;;;11.20;3.42;;;;;;;11.03;76.13;100465.53;3607334;39;20053;-66
2023/03/22 05:08:33;;;;;;;7.63;3.80;;;;;;;11.01;76.59;100468.34;3606580;39;20301;-66
2023/03/22 05:11:07;;;;;;;8.32;3.75;;;;;;;11.02;76.50;100466.50;3609049;39;20384;-66
2023/03/22 05:13:35;;;;;;;9.82;3.35;;;;;;;11.01;75.82;100459.41;3606450;39;20051;-66
2023/03/22 05:16:00;;;;;;;8.05;3.13;;;;;;;11.06;75.99;100452.72;3607390;39;20051;-66
2023/03/22 05:18:26;;;;;;;6.75;3.30;;;;;;;11.04;75.69;100465.44;3607976;39;20098;-65
2023/03/22 05:20:55;;;;;;;9.15;3.38;;;;;;;11.07;75.32;100456.28;3609098;39;20095;-66
2023/03/22 05:23:22;;;;;;;7.45;3.33;;;;;;;10.65;75.44;100383.84;3598147;39;20057;-66
2023/03/22 05:25:50;;;;;;;5.88;3.38;;;;;;;11.03;75.46;100457.44;3608809;39;20063;-65
2023/03/22 05:28:20;;;;;;;7.05;2.72;;;;;;;11.01;75.30;100454.88;3610008;39;20119;-66
2023/03/22 05:30:48;;;;;;;7.60;3.25;;;;;;;11.04;74.76;100453.81;3607432;39;20127;-66
2023/03/22 05:33:15;;;;;;;7.35;3.33;;;;;;;11.05;75.06;100459.06;3607534;39;20059;-67
2023/03/22 05:35:42;;;;;;;6.10;3.00;;;;;;;11.04;74.40;100453.81;3610116;39;20372;-66
2023/03/22 05:38:09;;;;;;;9.63;3.00;;;;;;;11.08;74.65;100461.56;3609357;39;20408;-65
2023/03/22 05:40:35;;;;;;;10.05;3.30;;;;;;;11.10;74.29;100459.63;3606061;39;20051;-66
2023/03/22 05:43:00;;;;;;;7.05;3.10;;;;;;;11.10;73.79;100456.03;3597512;39;20054;-66
2023/03/22 05:45:26;;;;;;;9.50;2.78;;;;;;;11.05;74.06;100428.63;3607224;39;20055;-66
2023/03/22 05:47:52;;;;;;;5.57;2.65;;;;;;;11.17;73.89;100445.75;3609267;39;20470;-67
2023/03/22 05:50:22;;;;;;;4.30;2.58;;;;;;;11.15;73.93;100453.91;3607209;39;20333;-67
2023/03/22 05:52:48;;;;;;;8.40;2.53;;;;;;;11.15;73.76;100459.28;3604718;39;20043;-66
2023/03/22 05:55:17;;;;;;;7.25;2.75;;;;;;;11.14;73.88;100460.25;3608724;39;20055;-67
2023/03/22 05:57:45;;;;;;;5.15;2.47;;;;;;;11.12;74.03;100463.03;3606730;39;20058;-68
2023/03/22 06:00:15;;;;;;;4.93;2.50;;;;;;;11.16;73.81;100463.69;3607735;39;20038;-68
2023/03/22 06:02:43;;;;;;;5.85;2.78;;;;;;;11.15;73.36;100462.84;3608799;39;20094;-68
2023/03/22 06:05:10;;;;;;;7.88;2.88;;;;;;;11.15;73.67;100457.44;3608852;39;20651;-68
2023/03/22 06:07:36;;;;;;;5.45;2.67;;;;;;;11.18;73.66;100463.59;3608676;39;20486;-68
2023/03/22 06:10:05;;;;;;;8.05;2.88;;;;;;;10.89;73.40;100402.81;3608322;39;20058;-68
2023/03/22 06:12:32;;;;;;;6.47;2.58;;;;;;;11.20;73.27;100464.38;3606964;39;20051;-68
2023/03/22 06:14:58;;;;;;;6.47;2.42;;;;;;;11.24;72.82;100455.94;3607971;39;20082;-68
2023/03/22 06:17:23;;;;;;;6.72;2.40;;;;;;;11.18;73.00;100451.00;3608860;39;20062;-68
2023/03/22 06:19:50;;;;;;;11.30;2.92;;;;;;;11.26;73.42;100454.03;3610760;39;20055;-68
2023/03/22 06:22:17;;;;;;;9.43;3.05;;;;;;;11.26;73.05;100451.34;3608995;39;20050;-68
2023/03/22 06:24:43;;;;;;;7.70;2.92;;;;;;;11.23;73.21;100448.84;3600043;39;20051;-68
2023/03/22 06:27:09;;;;;;;9.35;3.08;;;;;;;11.33;73.42;100455.31;3609262;39;20278;-68
2023/03/22 06:29:35;;;;;;;6.32;2.85;;;;;;;11.37;72.85;100456.81;3609854;39;20043;-68
2023/03/22 06:32:01;;;;;;;11.02;3.33;;;;;;;11.42;72.27;100456.50;3609782;39;20055;-69
2023/03/22 06:34:27;;;;;;;8.73;3.20;;;;;;;11.48;72.44;100465.94;3596660;39;20067;-68
2023/03/22 06:36:53;;;;;;;10.07;3.28;;;;;;;11.36;72.60;100446.16;3609272;39;20067;-68
2023/03/22 06:39:20;;;;;;;8.00;2.88;;;;;;;11.47;71.91;100445.38;3609428;39;20419;-68
2023/03/22 06:41:46;;;;;;;7.07;2.90;;;;;;;11.49;72.39;100448.84;3610230;39;20053;-68
2023/03/22 06:44:12;;;;;;;9.77;3.40;;;;;;;11.36;72.27;100430.00;3605909;39;20378;-68
2023/03/22 06:46:38;;;;;;;10.52;2.78;;;;;;;11.59;71.71;100460.66;3608161;39;20053;-68
2023/03/22 06:49:04;;;;;;;5.70;2.92;;;;;;;11.64;72.42;100463.88;3609604;39;20059;-68
2023/03/22 06:51:30;;;;;;;5.85;2.70;;;;;;;11.64;71.84;100463.88;3606238;39;20120;-68
2023/03/22 06:53:56;;;;;;;8.35;2.75;;;;;;;11.67;71.90;100466.34;3605539;39;20047;-68
2023/03/22 06:56:22;;;;;;;9.57;3.35;;;;;;;11.74;71.97;100454.16;3604328;39;20157;-68
2023/03/22 06:58:50;;;;;;;6.10;3.17;;;;;;;11.77;71.83;100459.31;3607714;39;20059;-68
2023/03/22 07:01:17;;;;;;;9.05;3.33;;;;;;;11.92;71.50;100462.75;3606352;39;20050;-68
2023/03/22 07:03:44;;;;;;;9.85;3.40;;;;;;;11.97;71.45;100465.97;3601475;39;20082;-68
2023/03/22 07:06:10;;;;;;;8.25;3.28;;;;;;;11.99;71.06;100461.34;3610315;39;20050;-68
2023/03/22 07:08:36;;;;;;;7.32;3.13;;;;;;;12.00;70.43;100460.38;3607525;39;20067;-68
2023/03/22 07:11:04;;;;;;;7.28;3.00;;;;;;;12.04;70.31;100467.25;3609292;39;20047;-68
2023/03/22 07:13:29;;;;;;;7.72;3.28;;;;;;;12.07;69.97;100455.38;3607848;39;20387;-68
2023/03/22 07:16:00;;;;;;;6.65;3.20;;;;;;;12.05;69.72;100457.31;3607753;39;20063;-68
2023/03/22 07:18:28;;;;;;;9.77;3.47;;;;;;;12.04;69.89;100461.84;3607844;39;20065;-68
2023/03/22 07:20:54;;;;;;;8.85;3.50;;;;;;;11.94;69.13;100450.03;3610844;39;20107;-68
2023/03/22 07:23:19;;;;;;;7.63;3.50;;;;;;;12.05;69.37;100462.69;3608686;39;20058;-69
2023/03/22 07:25:47;;;;;;;7.20;4.32;;;;;;;12.11;69.25;100467.66;3609678;39;20523;-69
2023/03/22 07:28:15;;;;;;;9.60;4.45;;;;;;;12.18;69.32;100463.53;3606063;39;20051;-68
2023/03/22 07:30:41;;;;;;;9.20;3.95;;;;;;;12.22;68.70;100464.16;3609637;39;20308;-68
2023/03/22 07:33:09;;;;;;;11.68;3.70;;;;;;;12.23;68.84;100461.34;3608557;39;20065;-69
2023/03/22 07:35:37;;;;;;;8.88;4.00;;;;;;;12.27;68.35;100465.56;3607747;39;20124;-69
2023/03/22 07:38:04;;;;;;;8.50;3.70;;;;;;;12.36;68.09;100472.06;3609087;39;21307;-69
2023/03/22 07:40:30;;;;;;;9.68;3.83;;;;;;;12.35;67.63;100458.72;3607316;39;20054;-69
2023/03/22 07:42:57;;;;;;;11.07;3.97;;;;;;;12.41;67.00;100463.66;3604594;39;20127;-68
2023/03/22 07:45:24;;;;;;;9.52;3.70;;;;;;;12.46;66.90;100472.22;3605061;39;20059;-68
2023/03/22 07:47:50;;;;;;;6.47;3.40;;;;;;;12.51;67.33;100464.66;3608017;39;20355;-68
2023/03/22 07:50:17;;;;;;;10.15;3.70;;;;;;;12.62;66.25;100453.91;3608317;39;20051;-68
2023/03/22 07:52:44;;;;;;;12.40;3.28;;;;;;;12.63;65.84;100469.13;3607863;39;20062;-68
2023/03/22 07:55:12;;;;;;;7.53;2.88;;;;;;;12.72;65.84;100460.34;3607906;39;20086;-68
2023/03/22 07:57:38;;;;;;;10.75;3.22;;;;;;;12.84;65.03;100468.44;3605172;39;20124;-69
2023/03/22 08:00:09;;;;;;;7.65;2.55;;;;;;;12.85;64.07;100478.28;3604862;39;20086;-69
2023/03/22 08:02:36;;;;;;;7.53;2.85;;;;;;;12.84;64.25;100463.91;3607446;39;20083;-68
2023/03/22 08:05:02;;;;;;;9.88;2.80;;;;;;;12.87;64.04;100470.91;3607663;39;20055;-67
2023/03/22 08:07:29;;;;;;;7.45;2.55;;;;;;;12.85;63.47;100470.19;3606505;39;20342;-68
2023/03/22 08:09:55;;;;;;;7.22;2.30;;;;;;;12.75;64.29;100440.38;3608875;39;20039;-69
2023/03/22 08:12:21;;;;;;;6.38;2.22;;;;;;;12.77;63.46;100458.13;3608139;39;20342;-69
2023/03/22 08:14:49;;;;;;;7.15;2.60;;;;;;;12.86;63.62;100469.22;3611543;39;20047;-69
2023/03/22 08:17:17;;;;;;;6.85;2.45;;;;;;;12.88;63.65;100475.34;3606785;39;20067;-69
2023/03/22 08:19:43;;;;;;;7.65;2.78;;;;;;;12.94;63.78;100482.94;3609115;39;20397;-68
2023/03/22 08:22:10;;;;;;;7.65;2.10;;;;;;;12.99;63.46;100467.28;3607665;39;20059;-69
2023/03/22 08:24:37;;;;;;;6.78;2.22;;;;;;;13.13;62.88;100472.47;3609460;39;20161;-69
2023/03/22 08:27:04;;;;;;;6.90;2.20;;;;;;;13.32;62.00;100479.13;3608867;39;20368;-67
2023/03/22 08:29:30;;;;;;;8.00;2.45;;;;;;;13.41;62.05;100465.75;3606687;39;20054;-67
2023/03/22 08:32:00;;;;;;;9.63;2.20;;;;;;;13.61;61.63;100466.03;3605095;39;20054;-68
2023/03/22 08:34:32;;;;;;;7.57;2.53;;;;;;;13.65;61.14;100462.94;3606815;39;21451;-67
2023/03/22 08:36:57;;;;;;;11.93;2.67;;;;;;;13.72;60.58;100457.91;3610840;39;20090;-67
2023/03/22 08:39:23;;;;;;;7.53;2.33;;;;;;;13.76;60.41;100461.22;3606486;39;20520;-68
2023/03/22 08:41:49;;;;;;;8.20;2.25;;;;;;;13.79;60.34;100455.56;3609871;39;20077;-68
2023/03/22 08:44:14;;;;;;;7.25;2.58;;;;;;;13.63;60.15;100435.19;3607416;39;20058;-68
2023/03/22 08:46:40;;;;;;;7.13;1.90;;;;;;;13.78;60.37;100468.22;3610431;39;20051;-68
2023/03/22 08:49:06;;;;;;;6.57;2.15;;;;;;;13.76;59.72;100453.97;3608091;39;20309;-68
2023/03/22 08:51:31;;;;;;;6.88;2.40;;;;;;;13.79;60.46;100466.38;3607259;39;20059;-68
2023/03/22 08:54:00;;;;;;;7.10;2.20;;;;;;;13.87;60.29;100458.50;3608142;39;20055;-68
2023/03/22 08:56:26;;;;;;;6.07;2.17;;;;;;;13.86;59.63;100449.56;3608069;39;20058;-67
2023/03/22 08:58:52;;;;;;;7.55;1.80;;;;;;;13.88;59.57;100462.91;3608233;39;20064;-67
2023/03/22 09:01:19;;;;;;;6.15;1.92;;;;;;;13.93;60.10;100466.13;3606025;39;20147;-69
2023/03/22 09:03:46;;;;;;;8.57;2.25;;;;;;;13.99;59.83;100449.41;3608468;39;20094;-67
2023/03/22 09:06:12;;;;;;;6.97;2.03;;;;;;;14.04;59.52;100463.38;3609650;39;20306;-67
2023/03/22 09:08:40;;;;;;;7.68;2.28;;;;;;;14.09;59.48;100454.91;3603885;39;20253;-68
2023/03/22 09:11:09;;;;;;;10.00;2.25;;;;;;;13.93;59.40;100412.94;3604960;39;20045;-67
2023/03/22 09:13:34;;;;;;;7.45;1.90;;;;;;;14.21;58.48;100450.31;3603796;39;20063;-68
2023/03/22 09:16:00;;;;;;;5.45;1.67;;;;;;;14.24;57.92;100440.13;3599232;39;20074;-67
2023/03/22 09:18:26;;;;;;;9.75;2.42;;;;;;;14.32;57.70;100451.13;3606366;39;20070;-68
2023/03/22 09:20:52;;;;;;;6.57;2.25;;;;;;;14.39;57.93;100446.06;3609476;39;20063;-68
2023/03/22 09:23:18;;;;;;;8.48;2.00;;;;;;;14.37;57.85;100432.69;3609308;39;20047;-68
2023/03/22 09:25:48;;;;;;;7.90;2.00;;;;;;;14.55;56.78;100446.53;3610343;39;20050;-68
2023/03/22 09:28:15;;;;;;;5.38;1.92;;;;;;;14.52;56.82;100433.25;3607059;39;20071;-68
2023/03/22 09:30:41;;;;;;;8.70;2.30;;;;;;;14.21;57.15;100402.53;3605236;39;20047;-68
2023/03/22 09:33:07;;;;;;;4.00;1.63;;;;;;;14.49;57.49;100432.63;3606009;39;20318;-67
2023/03/22 09:35:33;;;;;;;7.18;2.20;;;;;;;14.53;57.03;100431.44;3603361;39;20055;-67
2023/03/22 09:37:59;;;;;;;5.57;1.80;;;;;;;14.43;56.68;100431.34;3607716;39;20375;-68
2023/03/22 09:40:32;;;;;;;6.80;1.77;;;;;;;14.36;57.15;100435.50;3606517;39;20062;-68
2023/03/22 09:43:05;;;;;;;8.25;2.13;;;;;;;14.31;57.24;100432.34;3603177;39;21210;-67
2023/03/22 09:45:51;;;;;;;5.60;1.97;;;;;;;14.26;56.75;100429.16;3608812;39;20388;-68
2023/03/22 09:48:41;;;;;;;8.10;2.22;;;;;;;13.98;57.01;100393.63;3606481;39;20124;-68
2023/03/22 09:51:38;;;;;;;9.90;2.22;;;;;;;14.22;57.70;100427.72;3606266;39;20057;-68
2023/03/22 09:54:16;;;;;;;6.25;2.17;;;;;;;14.09;57.37;100436.00;3607828;39;20123;-67
2023/03/22 09:56:52;;;;;;;7.93;1.98;;;;;;;14.04;57.50;100439.06;3609430;39;20046;-68
2023/03/22 09:59:39;;;;;;;7.15;2.13;;;;;;;14.08;57.71;100437.84;3605525;39;20171;-69
2023/03/22 10:02:33;;;;;;;6.20;1.70;;;;;;;14.03;57.78;100441.91;3608026;39;20050;-69
2023/03/22 10:05:16;;;;;;;10.18;2.83;;;;;;;14.00;58.02;100428.63;3607350;39;20151;-69
2023/03/22 10:08:25;;;;;;;5.93;1.90;;;;;;;13.98;58.51;100436.84;3605633;39;20067;-70
2023/03/22 10:10:52;;;;;;;8.10;2.08;;;;;;;13.96;58.54;100432.59;3595784;39;20321;-70
2023/03/22 10:13:40;;;;;;;6.95;1.90;;;;;;;13.93;58.67;100433.69;3609722;39;20050;-69
2023/03/22 10:16:27;;;;;;;7.65;2.00;;;;;;;13.91;58.46;100436.50;3607651;39;20160;-69
2023/03/22 10:19:21;;;;;;;8.90;1.80;;;;;;;13.90;59.00;100433.94;3597540;39;20411;-69
2023/03/22 10:21:54;;;;;;;4.97;1.92;;;;;;;13.80;59.26;100449.19;3603960;39;20072;-69
2023/03/22 10:24:30;;;;;;;6.55;2.13;;;;;;;13.71;59.28;100440.00;3605307;39;20309;-69
2023/03/22 10:26:56;;;;;;;7.90;1.90;;;;;;;13.63;60.37;100448.69;3605484;39;20055;-69
2023/03/22 10:29:52;;;;;;;8.18;2.55;;;;;;;13.56;60.78;100455.59;3604932;39;20066;-69
2023/03/22 10:32:30;;;;;;;9.13;1.90;;;;;;;13.32;62.65;100434.13;3607468;39;20401;-68
2023/03/22 10:34:56;;;;;;;7.18;1.83;;;;;;;13.19;64.62;100455.78;3605992;39;20055;-67
2023/03/22 10:37:33;;;;;;;9.30;2.42;;;;;;;13.06;66.74;100455.00;3608585;39;20078;-67
2023/03/22 10:40:05;;;;;;;6.28;1.92;;;;;;;12.98;68.10;100454.78;3609113;39;20077;-67
2023/03/22 10:42:36;;;;;;;7.00;2.25;;;;;;;12.81;69.33;100449.81;3596902;39;20233;-67
2023/03/22 10:45:11;;;;;;;5.18;1.77;;;;;;;12.78;70.39;100441.00;3608690;39;20067;-67
2023/03/22 10:47:53;;;;;;;6.97;2.20;;;;;;;12.51;70.86;100421.53;3608617;39;20128;-67
2023/03/22 10:50:35;;;;;;;7.82;2.03;;;;;;;12.58;71.72;100452.44;3605273;39;20091;-67
2023/03/22 10:53:40;;;;;;;8.80;3.00;;;;;;;12.53;73.36;100457.34;3608054;39;20389;-65
2023/03/22 10:56:15;;;;;;;8.35;2.35;;;;;;;12.53;72.54;100449.25;3612052;39;20058;-66
2023/03/22 10:58:41;;;;;;;7.32;2.47;;;;;;;12.50;72.83;100454.88;3611551;39;20059;-65
2023/03/22 11:01:28;;;;;;;5.15;2.17;;;;;;;12.43;72.77;100451.78;3610164;39;20349;-65
2023/03/22 11:04:10;;;;;;;5.30;2.38;;;;;;;12.18;74.86;100419.53;3608282;39;20057;-65
2023/03/22 11:06:49;;;;;;;6.65;2.63;;;;;;;12.32;75.72;100449.88;3608334;39;20113;-65
2023/03/22 11:09:19;;;;;;;8.73;2.58;;;;;;;12.23;75.83;100449.72;3601124;39;20046;-66
2023/03/22 11:11:58;;;;;;;11.48;2.95;;;;;;;11.95;76.43;100402.41;3608931;39;20113;-65
2023/03/22 11:14:34;;;;;;;7.70;2.38;;;;;;;12.19;77.13;100448.22;3609764;39;20128;-66
2023/03/22 11:17:11;;;;;;;8.13;2.47;;;;;;;12.16;76.75;100448.47;3610051;39;20370;-67
2023/03/22 11:20:00;;;;;;;6.65;2.40;;;;;;;12.28;77.78;100442.16;3607607;39;20064;-67
2023/03/22 11:22:46;;;;;;;10.00;2.88;;;;;;;12.37;77.50;100429.78;3607183;39;20133;-67
2023/03/22 11:25:21;;;;;;;7.57;2.42;;;;;;;12.38;77.06;100427.00;3607795;39;20322;-67
2023/03/22 11:28:20;;;;;;;7.78;2.83;;;;;;;12.52;76.74;100439.41;3607320;39;20059;-68
2023/03/22 11:31:02;;;;;;;6.93;2.42;;;;;;;12.54;75.32;100438.34;3600963;39;20050;-69
2023/03/22 11:33:29;;;;;;;8.30;2.65;;;;;;;12.59;74.55;100432.59;3607054;39;20119;-69
2023/03/22 11:35:58;;;;;;;6.47;2.30;;;;;;;12.49;74.75;100412.69;3609734;39;20368;-71
2023/03/22 11:38:42;;;;;;;7.45;1.95;;;;;;;12.63;74.58;100436.78;3605771;39;20431;-70
2023/03/22 11:41:27;;;;;;;5.88;1.80;;;;;;;12.46;73.43;100394.94;3606738;39;20078;-71
2023/03/22 11:44:00;;;;;;;6.43;1.70;;;;;;;12.78;73.15;100443.69;3610240;39;20314;-71
2023/03/22 11:46:28;;;;;;;4.13;2.33;;;;;;;12.70;72.59;100404.81;3594811;39;20059;-72